Time;durP1;ratioP1;P1;durP2;ratioP2;P2;SDS_P1;SDS_P2;PMS_P1;PMS_P2;Temp;Humidity;BMP_temperature;BMP_pressure;BME280_temperature;BME280_humidity;BME280_pressure;Samples;Min_cycle;Max_cycle;Signal;HPM_P1;HPM_P2
2019/11/16 00:00:07;;;;;;;18;13.25;;;;;;;4.95;87.42578;93832.08;;;;
2019/11/16 00:01:16;;;;;;;18;13.25;;;;;;;4.95;87.42578;93832.08;;;;
2019/11/16 00:02:18;;;;;;;18;13.25;;;;;;;4.95;87.42578;93832.08;;;;
2019/11/16 00:03:19;;;;;;;18;13.25;;;;;;;4.95;87.42578;93832.08;;;;
2019/11/16 00:04:20;;;;;;;18;13.25;;;;;;;4.95;87.42578;93832.08;;;;
2019/11/16 00:05:21;;;;;;;18;13.25;;;;;;;4.95;87.42578;93832.08;;;;
2019/11/16 00:06:22;;;;;;;18;13.25;;;;;;;4.95;87.42578;93832.08;;;;
2019/11/16 00:07:23;;;;;;;18;13.25;;;;;;;4.95;87.42578;93832.08;;;;
2019/11/16 00:08:24;;;;;;;18;13.25;;;;;;;4.95;87.42578;93832.08;;;;
2019/11/16 00:09:26;;;;;;;18;13.25;;;;;;;4.95;87.42578;93832.08;;;;
2019/11/16 00:10:27;;;;;;;18;13.25;;;;;;;4.95;87.42578;93832.08;;;;
2019/11/16 00:11:28;;;;;;;18;13.25;;;;;;;4.95;87.42578;93832.08;;;;
2019/11/16 00:12:29;;;;;;;18;13.25;;;;;;;4.95;87.42578;93832.08;;;;
2019/11/16 00:13:30;;;;;;;18;13.25;;;;;;;4.95;87.42578;93832.08;;;;
2019/11/16 00:14:32;;;;;;;18;13.25;;;;;;;4.95;87.42578;93832.08;;;;
2019/11/16 00:15:33;;;;;;;18;13.25;;;;;;;4.95;87.42578;93832.08;;;;
2019/11/16 00:16:34;;;;;;;18;13.25;;;;;;;4.95;87.42578;93832.08;;;;
2019/11/16 00:17:35;;;;;;;18;13.25;;;;;;;4.95;87.42578;93832.08;;;;
2019/11/16 00:18:36;;;;;;;20.05;15.35;;;;;;;4.85;87.89648;93853.79;;;;
2019/11/16 00:19:38;;;;;;;20.05;15.35;;;;;;;4.85;87.89648;93853.79;;;;
2019/11/16 00:20:39;;;;;;;20.05;15.35;;;;;;;4.85;87.89648;93853.79;;;;
2019/11/16 00:21:44;;;;;;;20.05;15.35;;;;;;;4.85;87.89648;93853.79;;;;
2019/11/16 00:23:17;;;;;;;20.05;15.35;;;;;;;4.85;87.89648;93853.79;;;;
2019/11/16 00:24:18;;;;;;;20.05;15.35;;;;;;;4.85;87.89648;93853.79;;;;
2019/11/16 00:25:19;;;;;;;20.05;15.35;;;;;;;4.85;87.89648;93853.79;;;;
2019/11/16 00:26:21;;;;;;;20.05;15.35;;;;;;;4.85;87.89648;93853.79;;;;
2019/11/16 00:27:22;;;;;;;20.05;15.35;;;;;;;4.85;87.89648;93853.79;;;;
2019/11/16 00:28:23;;;;;;;20.05;15.35;;;;;;;4.85;87.89648;93853.79;;;;
2019/11/16 00:29:24;;;;;;;23.95;16.45;;;;;;;4.68;88.28516;93856.37;;;;
2019/11/16 00:30:25;;;;;;;23.95;16.45;;;;;;;4.68;88.28516;93856.37;;;;
2019/11/16 00:31:26;;;;;;;23.95;16.45;;;;;;;4.68;88.28516;93856.37;;;;
2019/11/16 00:32:27;;;;;;;23.95;16.45;;;;;;;4.68;88.28516;93856.37;;;;
2019/11/16 00:33:29;;;;;;;23.95;16.45;;;;;;;4.68;88.28516;93856.37;;;;
2019/11/16 00:34:30;;;;;;;23.95;16.45;;;;;;;4.68;88.28516;93856.37;;;;
2019/11/16 00:35:31;;;;;;;23.95;16.45;;;;;;;4.68;88.28516;93856.37;;;;
2019/11/16 00:36:33;;;;;;;23.95;16.45;;;;;;;4.68;88.28516;93856.37;;;;
2019/11/16 00:37:34;;;;;;;23.95;16.45;;;;;;;4.68;88.28516;93856.37;;;;
2019/11/16 00:38:35;;;;;;;23.95;16.45;;;;;;;4.68;88.28516;93856.37;;;;
2019/11/16 00:39:36;;;;;;;21.1;15.75;;;;;;;4.44;88.79297;93839.17;;;;
2019/11/16 00:40:37;;;;;;;21.1;15.75;;;;;;;4.44;88.79297;93839.17;;;;
2019/11/16 00:41:38;;;;;;;21.1;15.75;;;;;;;4.44;88.79297;93839.17;;;;
2019/11/16 00:42:39;;;;;;;21.1;15.75;;;;;;;4.44;88.79297;93839.17;;;;
2019/11/16 00:43:40;;;;;;;21.1;15.75;;;;;;;4.44;88.79297;93839.17;;;;
2019/11/16 00:44:41;;;;;;;21.1;15.75;;;;;;;4.44;88.79297;93839.17;;;;
2019/11/16 00:45:43;;;;;;;21.1;15.75;;;;;;;4.44;88.79297;93839.17;;;;
2019/11/16 00:46:44;;;;;;;21.1;15.75;;;;;;;4.44;88.79297;93839.17;;;;
2019/11/16 00:47:45;;;;;;;21.1;15.75;;;;;;;4.44;88.79297;93839.17;;;;
2019/11/16 00:48:46;;;;;;;21.1;15.75;;;;;;;4.44;88.79297;93839.17;;;;
2019/11/16 00:49:47;;;;;;;21.1;15.75;;;;;;;4.44;88.79297;93839.17;;;;
2019/11/16 00:50:48;;;;;;;21.1;15.75;;;;;;;4.44;88.79297;93839.17;;;;
2019/11/16 00:51:49;;;;;;;21.1;15.75;;;;;;;4.44;88.79297;93839.17;;;;
2019/11/16 00:52:50;;;;;;;21.1;15.75;;;;;;;4.44;88.79297;93839.17;;;;
2019/11/16 00:53:51;;;;;;;21.1;15.75;;;;;;;4.44;88.79297;93839.17;;;;
2019/11/16 00:54:53;;;;;;;21.1;15.75;;;;;;;4.44;88.79297;93839.17;;;;
2019/11/16 00:55:54;;;;;;;21.1;15.75;;;;;;;4.44;88.79297;93839.17;;;;
2019/11/16 00:56:55;;;;;;;21.1;15.75;;;;;;;4.44;88.79297;93839.17;;;;
2019/11/16 00:57:56;;;;;;;21.1;15.75;;;;;;;4.44;88.79297;93839.17;;;;
2019/11/16 00:58:57;;;;;;;21.1;15.75;;;;;;;4.44;88.79297;93839.17;;;;
2019/11/16 00:59:58;;;;;;;21.1;15.75;;;;;;;4.44;88.79297;93839.17;;;;
2019/11/16 01:01:00;;;;;;;28.15;19.65;;;;;;;3.66;89.93262;93871.08;;;;
2019/11/16 01:02:01;;;;;;;28.15;19.65;;;;;;;3.66;89.93262;93871.08;;;;
2019/11/16 01:03:02;;;;;;;28.15;19.65;;;;;;;3.66;89.93262;93871.08;;;;
2019/11/16 01:04:04;;;;;;;28.15;19.65;;;;;;;3.66;89.93262;93871.08;;;;
2019/11/16 01:05:05;;;;;;;28.15;19.65;;;;;;;3.66;89.93262;93871.08;;;;
2019/11/16 01:06:07;;;;;;;28.15;19.65;;;;;;;3.66;89.93262;93871.08;;;;
2019/11/16 01:07:08;;;;;;;28.15;19.65;;;;;;;3.66;89.93262;93871.08;;;;
2019/11/16 01:08:09;;;;;;;28.15;19.65;;;;;;;3.66;89.93262;93871.08;;;;
2019/11/16 01:09:10;;;;;;;28.15;19.65;;;;;;;3.66;89.93262;93871.08;;;;
2019/11/16 01:10:11;;;;;;;28.15;19.65;;;;;;;3.66;89.93262;93871.08;;;;
2019/11/16 01:11:14;;;;;;;28.65;20.1;;;;;;;3.6;90.58008;93894.65;;;;
2019/11/16 01:12:15;;;;;;;28.65;20.1;;;;;;;3.6;90.58008;93894.65;;;;
2019/11/16 01:13:16;;;;;;;28.65;20.1;;;;;;;3.6;90.58008;93894.65;;;;
2019/11/16 01:14:17;;;;;;;28.65;20.1;;;;;;;3.6;90.58008;93894.65;;;;
2019/11/16 01:15:18;;;;;;;28.65;20.1;;;;;;;3.6;90.58008;93894.65;;;;
2019/11/16 01:16:20;;;;;;;28.65;20.1;;;;;;;3.6;90.58008;93894.65;;;;
2019/11/16 01:17:21;;;;;;;28.65;20.1;;;;;;;3.6;90.58008;93894.65;;;;
2019/11/16 01:18:22;;;;;;;28.65;20.1;;;;;;;3.6;90.58008;93894.65;;;;
2019/11/16 01:19:23;;;;;;;28.65;20.1;;;;;;;3.6;90.58008;93894.65;;;;
2019/11/16 01:20:24;;;;;;;28.65;20.1;;;;;;;3.6;90.58008;93894.65;;;;
2019/11/16 01:21:25;;;;;;;28.65;20.1;;;;;;;3.6;90.58008;93894.65;;;;
2019/11/16 01:22:26;;;;;;;34.30001;22.55;;;;;;;3.43;91.08887;93887.02;;;;
2019/11/16 01:23:28;;;;;;;34.30001;22.55;;;;;;;3.43;91.08887;93887.02;;;;
2019/11/16 01:24:29;;;;;;;34.30001;22.55;;;;;;;3.43;91.08887;93887.02;;;;
2019/11/16 01:25:30;;;;;;;34.30001;22.55;;;;;;;3.43;91.08887;93887.02;;;;
2019/11/16 01:26:31;;;;;;;34.30001;22.55;;;;;;;3.43;91.08887;93887.02;;;;
2019/11/16 01:27:32;;;;;;;34.30001;22.55;;;;;;;3.43;91.08887;93887.02;;;;
2019/11/16 01:28:33;;;;;;;34.30001;22.55;;;;;;;3.43;91.08887;93887.02;;;;
2019/11/16 01:29:34;;;;;;;34.30001;22.55;;;;;;;3.43;91.08887;93887.02;;;;
2019/11/16 01:30:35;;;;;;;34.30001;22.55;;;;;;;3.43;91.08887;93887.02;;;;
2019/11/16 01:31:37;;;;;;;34.30001;22.55;;;;;;;3.43;91.08887;93887.02;;;;
2019/11/16 01:32:38;;;;;;;30.15;20.25;;;;;;;3.12;91.01074;93893.07;;;;
2019/11/16 01:33:39;;;;;;;30.15;20.25;;;;;;;3.12;91.01074;93893.07;;;;
2019/11/16 01:34:40;;;;;;;30.15;20.25;;;;;;;3.12;91.01074;93893.07;;;;
2019/11/16 01:35:41;;;;;;;30.15;20.25;;;;;;;3.12;91.01074;93893.07;;;;
2019/11/16 01:36:43;;;;;;;30.15;20.25;;;;;;;3.12;91.01074;93893.07;;;;
2019/11/16 01:37:44;;;;;;;30.15;20.25;;;;;;;3.12;91.01074;93893.07;;;;
2019/11/16 01:38:45;;;;;;;30.15;20.25;;;;;;;3.12;91.01074;93893.07;;;;
2019/11/16 01:39:46;;;;;;;30.15;20.25;;;;;;;3.12;91.01074;93893.07;;;;
2019/11/16 01:40:47;;;;;;;30.15;20.25;;;;;;;3.12;91.01074;93893.07;;;;
2019/11/16 01:41:56;;;;;;;30.15;20.25;;;;;;;3.12;91.01074;93893.07;;;;
2019/11/16 01:42:57;;;;;;;30.15;20.25;;;;;;;3.12;91.01074;93893.07;;;;
2019/11/16 01:43:58;;;;;;;30.95;20.2;;;;;;;2.82;91.28418;93910.86;;;;
2019/11/16 01:44:59;;;;;;;30.95;20.2;;;;;;;2.82;91.28418;93910.86;;;;
2019/11/16 01:46:01;;;;;;;30.95;20.2;;;;;;;2.82;91.28418;93910.86;;;;
2019/11/16 01:47:02;;;;;;;30.95;20.2;;;;;;;2.82;91.28418;93910.86;;;;
2019/11/16 01:48:03;;;;;;;30.95;20.2;;;;;;;2.82;91.28418;93910.86;;;;
2019/11/16 01:49:04;;;;;;;30.95;20.2;;;;;;;2.82;91.28418;93910.86;;;;
2019/11/16 01:50:06;;;;;;;30.95;20.2;;;;;;;2.82;91.28418;93910.86;;;;
2019/11/16 01:51:07;;;;;;;30.95;20.2;;;;;;;2.82;91.28418;93910.86;;;;
2019/11/16 01:52:08;;;;;;;30.95;20.2;;;;;;;2.82;91.28418;93910.86;;;;
2019/11/16 01:53:09;;;;;;;30.95;20.2;;;;;;;2.82;91.28418;93910.86;;;;
2019/11/16 01:54:11;;;;;;;32.6;20.85;;;;;;;2.46;91.4043;93924.98;;;;
2019/11/16 01:55:12;;;;;;;32.6;20.85;;;;;;;2.46;91.4043;93924.98;;;;
2019/11/16 01:56:13;;;;;;;32.6;20.85;;;;;;;2.46;91.4043;93924.98;;;;
2019/11/16 01:57:14;;;;;;;32.6;20.85;;;;;;;2.46;91.4043;93924.98;;;;
2019/11/16 01:58:15;;;;;;;32.6;20.85;;;;;;;2.46;91.4043;93924.98;;;;
2019/11/16 01:59:16;;;;;;;32.6;20.85;;;;;;;2.46;91.4043;93924.98;;;;
2019/11/16 02:00:17;;;;;;;32.6;20.85;;;;;;;2.46;91.4043;93924.98;;;;
2019/11/16 02:01:18;;;;;;;32.6;20.85;;;;;;;2.46;91.4043;93924.98;;;;
2019/11/16 02:02:20;;;;;;;32.6;20.85;;;;;;;2.46;91.4043;93924.98;;;;
2019/11/16 02:03:21;;;;;;;32.6;20.85;;;;;;;2.46;91.4043;93924.98;;;;
2019/11/16 02:04:22;;;;;;;34.9;21.55;;;;;;;2.22;91.60449;93928.06;;;;
2019/11/16 02:05:23;;;;;;;34.9;21.55;;;;;;;2.22;91.60449;93928.06;;;;
2019/11/16 02:06:25;;;;;;;34.9;21.55;;;;;;;2.22;91.60449;93928.06;;;;
2019/11/16 02:07:26;;;;;;;34.9;21.55;;;;;;;2.22;91.60449;93928.06;;;;
2019/11/16 02:08:27;;;;;;;34.9;21.55;;;;;;;2.22;91.60449;93928.06;;;;
2019/11/16 02:09:30;;;;;;;34.9;21.55;;;;;;;2.22;91.60449;93928.06;;;;
2019/11/16 02:10:41;;;;;;;34.9;21.55;;;;;;;2.22;91.60449;93928.06;;;;
2019/11/16 02:13:41;;;;;;;34.9;21.55;;;;;;;2.22;91.60449;93928.06;;;;
2019/11/16 02:15:39;;;;;;;29.6;19.6;;;;;;;1.92;91.66602;93928.83;;;;
2019/11/16 02:16:42;;;;;;;29.6;19.6;;;;;;;1.92;91.66602;93928.83;;;;
2019/11/16 02:17:43;;;;;;;29.6;19.6;;;;;;;1.92;91.66602;93928.83;;;;
2019/11/16 02:18:44;;;;;;;29.6;19.6;;;;;;;1.92;91.66602;93928.83;;;;
2019/11/16 02:19:45;;;;;;;29.6;19.6;;;;;;;1.92;91.66602;93928.83;;;;
2019/11/16 02:20:46;;;;;;;29.6;19.6;;;;;;;1.92;91.66602;93928.83;;;;
2019/11/16 02:21:48;;;;;;;29.6;19.6;;;;;;;1.92;91.66602;93928.83;;;;
2019/11/16 02:22:49;;;;;;;29.6;19.6;;;;;;;1.92;91.66602;93928.83;;;;
2019/11/16 02:23:50;;;;;;;29.6;19.6;;;;;;;1.92;91.66602;93928.83;;;;
2019/11/16 02:24:51;;;;;;;29.6;19.6;;;;;;;1.92;91.66602;93928.83;;;;
2019/11/16 02:25:52;;;;;;;33.35001;21.05;;;;;;;1.73;91.92773;93924.49;;;;
2019/11/16 02:26:54;;;;;;;33.35001;21.05;;;;;;;1.73;91.92773;93924.49;;;;
2019/11/16 02:27:55;;;;;;;33.35001;21.05;;;;;;;1.73;91.92773;93924.49;;;;
2019/11/16 02:28:56;;;;;;;33.35001;21.05;;;;;;;1.73;91.92773;93924.49;;;;
2019/11/16 02:29:57;;;;;;;33.35001;21.05;;;;;;;1.73;91.92773;93924.49;;;;
2019/11/16 02:30:58;;;;;;;33.35001;21.05;;;;;;;1.73;91.92773;93924.49;;;;
2019/11/16 02:31:59;;;;;;;33.35001;21.05;;;;;;;1.73;91.92773;93924.49;;;;
2019/11/16 02:33:01;;;;;;;33.35001;21.05;;;;;;;1.73;91.92773;93924.49;;;;
2019/11/16 02:34:02;;;;;;;33.35001;21.05;;;;;;;1.73;91.92773;93924.49;;;;
2019/11/16 02:35:03;;;;;;;33.35001;21.05;;;;;;;1.73;91.92773;93924.49;;;;
2019/11/16 02:36:05;;;;;;;33.2;19.75;;;;;;;1.45;92.03613;93932.83;;;;
2019/11/16 02:37:06;;;;;;;33.2;19.75;;;;;;;1.45;92.03613;93932.83;;;;
2019/11/16 02:38:07;;;;;;;33.2;19.75;;;;;;;1.45;92.03613;93932.83;;;;
2019/11/16 02:39:08;;;;;;;33.2;19.75;;;;;;;1.45;92.03613;93932.83;;;;
2019/11/16 02:40:10;;;;;;;33.2;19.75;;;;;;;1.45;92.03613;93932.83;;;;
2019/11/16 02:41:11;;;;;;;33.2;19.75;;;;;;;1.45;92.03613;93932.83;;;;
2019/11/16 02:42:12;;;;;;;33.2;19.75;;;;;;;1.45;92.03613;93932.83;;;;
2019/11/16 02:43:13;;;;;;;33.2;19.75;;;;;;;1.45;92.03613;93932.83;;;;
2019/11/16 02:44:15;;;;;;;33.2;19.75;;;;;;;1.45;92.03613;93932.83;;;;
2019/11/16 02:45:16;;;;;;;33.2;19.75;;;;;;;1.45;92.03613;93932.83;;;;
2019/11/16 02:46:17;;;;;;;33.2;19.75;;;;;;;1.45;92.03613;93932.83;;;;
2019/11/16 02:47:18;;;;;;;33.75;20.6;;;;;;;1.25;92.10645;93950.22;;;;
2019/11/16 02:48:19;;;;;;;33.75;20.6;;;;;;;1.25;92.10645;93950.22;;;;
2019/11/16 02:49:21;;;;;;;33.75;20.6;;;;;;;1.25;92.10645;93950.22;;;;
2019/11/16 02:50:22;;;;;;;33.75;20.6;;;;;;;1.25;92.10645;93950.22;;;;
2019/11/16 02:51:24;;;;;;;33.75;20.6;;;;;;;1.25;92.10645;93950.22;;;;
2019/11/16 02:52:25;;;;;;;33.75;20.6;;;;;;;1.25;92.10645;93950.22;;;;
2019/11/16 02:53:26;;;;;;;33.75;20.6;;;;;;;1.25;92.10645;93950.22;;;;
2019/11/16 02:54:27;;;;;;;33.75;20.6;;;;;;;1.25;92.10645;93950.22;;;;
2019/11/16 02:55:29;;;;;;;33.75;20.6;;;;;;;1.25;92.10645;93950.22;;;;
2019/11/16 02:56:30;;;;;;;33.75;20.6;;;;;;;1.25;92.10645;93950.22;;;;
2019/11/16 02:57:31;;;;;;;33.75;20.6;;;;;;;1.25;92.10645;93950.22;;;;
2019/11/16 02:58:33;;;;;;;33.75;20.6;;;;;;;1.25;92.10645;93950.22;;;;
2019/11/16 02:59:34;;;;;;;33.75;20.6;;;;;;;1.25;92.10645;93950.22;;;;
2019/11/16 03:00:35;;;;;;;33.75;20.6;;;;;;;1.25;92.10645;93950.22;;;;
2019/11/16 03:01:36;;;;;;;33.75;20.6;;;;;;;1.25;92.10645;93950.22;;;;
2019/11/16 03:02:37;;;;;;;33.75;20.6;;;;;;;1.25;92.10645;93950.22;;;;
2019/11/16 03:03:39;;;;;;;33.75;20.6;;;;;;;1.25;92.10645;93950.22;;;;
2019/11/16 03:04:40;;;;;;;33.75;20.6;;;;;;;1.25;92.10645;93950.22;;;;
2019/11/16 03:06:12;;;;;;;33.75;20.6;;;;;;;1.25;92.10645;93950.22;;;;
2019/11/16 03:07:13;;;;;;;33.75;20.6;;;;;;;1.25;92.10645;93950.22;;;;
2019/11/16 03:08:15;;;;;;;35.65;21.1;;;;;;;0.87;92.02539;93987.47;;;;
2019/11/16 03:09:16;;;;;;;35.65;21.1;;;;;;;0.87;92.02539;93987.47;;;;
2019/11/16 03:10:17;;;;;;;35.65;21.1;;;;;;;0.87;92.02539;93987.47;;;;
2019/11/16 03:11:18;;;;;;;35.65;21.1;;;;;;;0.87;92.02539;93987.47;;;;
2019/11/16 03:12:20;;;;;;;35.65;21.1;;;;;;;0.87;92.02539;93987.47;;;;
2019/11/16 03:13:21;;;;;;;35.65;21.1;;;;;;;0.87;92.02539;93987.47;;;;
2019/11/16 03:14:22;;;;;;;35.65;21.1;;;;;;;0.87;92.02539;93987.47;;;;
2019/11/16 03:15:23;;;;;;;35.65;21.1;;;;;;;0.87;92.02539;93987.47;;;;
2019/11/16 03:16:25;;;;;;;35.65;21.1;;;;;;;0.87;92.02539;93987.47;;;;
2019/11/16 03:17:26;;;;;;;35.65;21.1;;;;;;;0.87;92.02539;93987.47;;;;
2019/11/16 03:18:27;;;;;;;35.65;21.1;;;;;;;0.87;92.02539;93987.47;;;;
2019/11/16 03:19:29;;;;;;;30.45;19.45;;;;;;;0.73;92.24414;93981.47;;;;
2019/11/16 03:20:30;;;;;;;30.45;19.45;;;;;;;0.73;92.24414;93981.47;;;;
2019/11/16 03:21:31;;;;;;;30.45;19.45;;;;;;;0.73;92.24414;93981.47;;;;
2019/11/16 03:22:32;;;;;;;30.45;19.45;;;;;;;0.73;92.24414;93981.47;;;;
2019/11/16 03:23:33;;;;;;;30.45;19.45;;;;;;;0.73;92.24414;93981.47;;;;
2019/11/16 03:24:35;;;;;;;30.45;19.45;;;;;;;0.73;92.24414;93981.47;;;;
2019/11/16 03:25:36;;;;;;;30.45;19.45;;;;;;;0.73;92.24414;93981.47;;;;
2019/11/16 03:26:37;;;;;;;30.45;19.45;;;;;;;0.73;92.24414;93981.47;;;;
2019/11/16 03:27:39;;;;;;;30.45;19.45;;;;;;;0.73;92.24414;93981.47;;;;
2019/11/16 03:28:40;;;;;;;30.45;19.45;;;;;;;0.73;92.24414;93981.47;;;;
2019/11/16 03:29:41;;;;;;;33.7;20.7;;;;;;;0.56;92.34277;93979.77;;;;
2019/11/16 03:30:42;;;;;;;33.7;20.7;;;;;;;0.56;92.34277;93979.77;;;;
2019/11/16 03:31:43;;;;;;;33.7;20.7;;;;;;;0.56;92.34277;93979.77;;;;
2019/11/16 03:32:44;;;;;;;33.7;20.7;;;;;;;0.56;92.34277;93979.77;;;;
2019/11/16 03:33:45;;;;;;;33.7;20.7;;;;;;;0.56;92.34277;93979.77;;;;
2019/11/16 03:34:47;;;;;;;33.7;20.7;;;;;;;0.56;92.34277;93979.77;;;;
2019/11/16 03:35:48;;;;;;;33.7;20.7;;;;;;;0.56;92.34277;93979.77;;;;
2019/11/16 03:36:49;;;;;;;33.7;20.7;;;;;;;0.56;92.34277;93979.77;;;;
2019/11/16 03:37:50;;;;;;;33.7;20.7;;;;;;;0.56;92.34277;93979.77;;;;
2019/11/16 03:38:51;;;;;;;33.7;20.7;;;;;;;0.56;92.34277;93979.77;;;;
2019/11/16 03:39:52;;;;;;;38.65;23.6;;;;;;;0.49;92.77734;93997.05;;;;
2019/11/16 03:40:53;;;;;;;38.65;23.6;;;;;;;0.49;92.77734;93997.05;;;;
2019/11/16 03:41:54;;;;;;;38.65;23.6;;;;;;;0.49;92.77734;93997.05;;;;
2019/11/16 03:42:56;;;;;;;38.65;23.6;;;;;;;0.49;92.77734;93997.05;;;;
2019/11/16 03:43:57;;;;;;;38.65;23.6;;;;;;;0.49;92.77734;93997.05;;;;
2019/11/16 03:44:58;;;;;;;38.65;23.6;;;;;;;0.49;92.77734;93997.05;;;;
2019/11/16 03:45:59;;;;;;;38.65;23.6;;;;;;;0.49;92.77734;93997.05;;;;
2019/11/16 03:47:04;;;;;;;38.65;23.6;;;;;;;0.49;92.77734;93997.05;;;;
2019/11/16 03:48:13;;;;;;;38.65;23.6;;;;;;;0.49;92.77734;93997.05;;;;
2019/11/16 03:49:21;;;;;;;38.65;23.6;;;;;;;0.49;92.77734;93997.05;;;;
2019/11/16 03:50:26;;;;;;;47.15;27;;;;;;;0.81;92.80371;94012.23;;;;
2019/11/16 03:51:29;;;;;;;47.15;27;;;;;;;0.81;92.80371;94012.23;;;;
2019/11/16 03:52:35;;;;;;;47.15;27;;;;;;;0.81;92.80371;94012.23;;;;
2019/11/16 03:53:38;;;;;;;47.15;27;;;;;;;0.81;92.80371;94012.23;;;;
2019/11/16 03:54:41;;;;;;;47.15;27;;;;;;;0.81;92.80371;94012.23;;;;
2019/11/16 03:55:45;;;;;;;47.15;27;;;;;;;0.81;92.80371;94012.23;;;;
2019/11/16 03:56:48;;;;;;;47.15;27;;;;;;;0.81;92.80371;94012.23;;;;
2019/11/16 03:57:51;;;;;;;47.15;27;;;;;;;0.81;92.80371;94012.23;;;;
2019/11/16 03:58:52;;;;;;;47.15;27;;;;;;;0.81;92.80371;94012.23;;;;
2019/11/16 03:59:55;;;;;;;47.15;27;;;;;;;0.81;92.80371;94012.23;;;;
2019/11/16 04:00:56;;;;;;;47.15;27;;;;;;;0.81;92.80371;94012.23;;;;
2019/11/16 04:01:58;;;;;;;44.99999;26.15;;;;;;;1.18;92.5293;94027.03;;;;
2019/11/16 04:02:59;;;;;;;44.99999;26.15;;;;;;;1.18;92.5293;94027.03;;;;
2019/11/16 04:04:00;;;;;;;44.99999;26.15;;;;;;;1.18;92.5293;94027.03;;;;
2019/11/16 04:05:01;;;;;;;44.99999;26.15;;;;;;;1.18;92.5293;94027.03;;;;
2019/11/16 04:06:04;;;;;;;44.99999;26.15;;;;;;;1.18;92.5293;94027.03;;;;
2019/11/16 04:07:05;;;;;;;44.99999;26.15;;;;;;;1.18;92.5293;94027.03;;;;
2019/11/16 04:08:06;;;;;;;44.99999;26.15;;;;;;;1.18;92.5293;94027.03;;;;
2019/11/16 04:09:07;;;;;;;44.99999;26.15;;;;;;;1.18;92.5293;94027.03;;;;
2019/11/16 04:10:09;;;;;;;44.99999;26.15;;;;;;;1.18;92.5293;94027.03;;;;
2019/11/16 04:11:10;;;;;;;44.99999;26.15;;;;;;;1.18;92.5293;94027.03;;;;
2019/11/16 04:12:11;;;;;;;47.24999;25.6;;;;;;;1.59;92.3252;94043.02;;;;
2019/11/16 04:13:13;;;;;;;47.24999;25.6;;;;;;;1.59;92.3252;94043.02;;;;
2019/11/16 04:14:14;;;;;;;47.24999;25.6;;;;;;;1.59;92.3252;94043.02;;;;
2019/11/16 04:15:15;;;;;;;47.24999;25.6;;;;;;;1.59;92.3252;94043.02;;;;
2019/11/16 04:16:16;;;;;;;47.24999;25.6;;;;;;;1.59;92.3252;94043.02;;;;
2019/11/16 04:17:17;;;;;;;47.24999;25.6;;;;;;;1.59;92.3252;94043.02;;;;
2019/11/16 04:18:20;;;;;;;47.24999;25.6;;;;;;;1.59;92.3252;94043.02;;;;
2019/11/16 04:19:21;;;;;;;47.24999;25.6;;;;;;;1.59;92.3252;94043.02;;;;
2019/11/16 04:25:31;;;;;;;36.00001;22.45;;;;;;;1.91;92.29004;94043.36;;;;
2019/11/16 04:26:32;;;;;;;36.00001;22.45;;;;;;;1.91;92.29004;94043.36;;;;
2019/11/16 04:27:38;;;;;;;36.00001;22.45;;;;;;;1.91;92.29004;94043.36;;;;
2019/11/16 04:28:43;;;;;;;36.00001;22.45;;;;;;;1.91;92.29004;94043.36;;;;
2019/11/16 04:29:45;;;;;;;36.00001;22.45;;;;;;;1.91;92.29004;94043.36;;;;
2019/11/16 04:30:49;;;;;;;36.00001;22.45;;;;;;;1.91;92.29004;94043.36;;;;
2019/11/16 04:31:50;;;;;;;36.00001;22.45;;;;;;;1.91;92.29004;94043.36;;;;
2019/11/16 04:32:52;;;;;;;31.75;20.8;;;;;;;2.21;92.32324;94036.43;;;;
2019/11/16 04:33:54;;;;;;;31.75;20.8;;;;;;;2.21;92.32324;94036.43;;;;
2019/11/16 04:34:55;;;;;;;31.75;20.8;;;;;;;2.21;92.32324;94036.43;;;;
2019/11/16 04:35:57;;;;;;;31.75;20.8;;;;;;;2.21;92.32324;94036.43;;;;
2019/11/16 04:36:58;;;;;;;31.75;20.8;;;;;;;2.21;92.32324;94036.43;;;;
2019/11/16 04:37:59;;;;;;;31.75;20.8;;;;;;;2.21;92.32324;94036.43;;;;
2019/11/16 04:39:00;;;;;;;31.75;20.8;;;;;;;2.21;92.32324;94036.43;;;;
2019/11/16 04:40:03;;;;;;;31.75;20.8;;;;;;;2.21;92.32324;94036.43;;;;
2019/11/16 04:41:05;;;;;;;31.75;20.8;;;;;;;2.21;92.32324;94036.43;;;;
2019/11/16 04:42:06;;;;;;;31.75;20.8;;;;;;;2.21;92.32324;94036.43;;;;
2019/11/16 04:43:07;;;;;;;31.75;20.8;;;;;;;2.21;92.32324;94036.43;;;;
2019/11/16 04:44:08;;;;;;;33.4;20.5;;;;;;;2.37;92.29492;94039.89;;;;
2019/11/16 04:45:09;;;;;;;33.4;20.5;;;;;;;2.37;92.29492;94039.89;;;;
2019/11/16 04:46:11;;;;;;;33.4;20.5;;;;;;;2.37;92.29492;94039.89;;;;
2019/11/16 04:47:12;;;;;;;33.4;20.5;;;;;;;2.37;92.29492;94039.89;;;;
2019/11/16 04:48:13;;;;;;;33.4;20.5;;;;;;;2.37;92.29492;94039.89;;;;
2019/11/16 04:49:14;;;;;;;33.4;20.5;;;;;;;2.37;92.29492;94039.89;;;;
2019/11/16 04:50:15;;;;;;;33.4;20.5;;;;;;;2.37;92.29492;94039.89;;;;
2019/11/16 04:51:17;;;;;;;33.4;20.5;;;;;;;2.37;92.29492;94039.89;;;;
2019/11/16 04:52:18;;;;;;;33.4;20.5;;;;;;;2.37;92.29492;94039.89;;;;
2019/11/16 04:53:19;;;;;;;33.4;20.5;;;;;;;2.37;92.29492;94039.89;;;;
2019/11/16 04:54:20;;;;;;;31.25;20.1;;;;;;;2.51;92.56738;94041.83;;;;
2019/11/16 04:55:21;;;;;;;31.25;20.1;;;;;;;2.51;92.56738;94041.83;;;;
2019/11/16 04:57:00;;;;;;;31.25;20.1;;;;;;;2.51;92.56738;94041.83;;;;
2019/11/16 04:58:03;;;;;;;31.25;20.1;;;;;;;2.51;92.56738;94041.83;;;;
2019/11/16 04:59:04;;;;;;;31.25;20.1;;;;;;;2.51;92.56738;94041.83;;;;
2019/11/16 05:00:05;;;;;;;31.25;20.1;;;;;;;2.51;92.56738;94041.83;;;;
2019/11/16 05:01:08;;;;;;;31.25;20.1;;;;;;;2.51;92.56738;94041.83;;;;
2019/11/16 05:02:09;;;;;;;31.25;20.1;;;;;;;2.51;92.56738;94041.83;;;;
2019/11/16 05:03:10;;;;;;;31.25;20.1;;;;;;;2.51;92.56738;94041.83;;;;
2019/11/16 05:04:12;;;;;;;31.25;20.1;;;;;;;2.51;92.56738;94041.83;;;;
2019/11/16 05:05:13;;;;;;;31.55;20.2;;;;;;;2.73;92.9043;94042.27;;;;
2019/11/16 05:06:14;;;;;;;31.55;20.2;;;;;;;2.73;92.9043;94042.27;;;;
2019/11/16 05:07:15;;;;;;;31.55;20.2;;;;;;;2.73;92.9043;94042.27;;;;
2019/11/16 05:08:16;;;;;;;31.55;20.2;;;;;;;2.73;92.9043;94042.27;;;;
2019/11/16 05:09:18;;;;;;;31.55;20.2;;;;;;;2.73;92.9043;94042.27;;;;
2019/11/16 05:10:19;;;;;;;31.55;20.2;;;;;;;2.73;92.9043;94042.27;;;;
2019/11/16 05:11:20;;;;;;;31.55;20.2;;;;;;;2.73;92.9043;94042.27;;;;
2019/11/16 05:12:21;;;;;;;31.55;20.2;;;;;;;2.73;92.9043;94042.27;;;;
2019/11/16 05:13:22;;;;;;;31.55;20.2;;;;;;;2.73;92.9043;94042.27;;;;
2019/11/16 05:14:23;;;;;;;31.55;20.2;;;;;;;2.73;92.9043;94042.27;;;;
2019/11/16 05:15:24;;;;;;;32.7;20.25;;;;;;;2.87;92.92285;94082.92;;;;
2019/11/16 05:16:27;;;;;;;32.7;20.25;;;;;;;2.87;92.92285;94082.92;;;;
2019/11/16 05:17:28;;;;;;;32.7;20.25;;;;;;;2.87;92.92285;94082.92;;;;
2019/11/16 05:18:29;;;;;;;32.7;20.25;;;;;;;2.87;92.92285;94082.92;;;;
2019/11/16 05:19:30;;;;;;;32.7;20.25;;;;;;;2.87;92.92285;94082.92;;;;
2019/11/16 05:20:31;;;;;;;32.7;20.25;;;;;;;2.87;92.92285;94082.92;;;;
2019/11/16 05:21:32;;;;;;;32.7;20.25;;;;;;;2.87;92.92285;94082.92;;;;
2019/11/16 05:22:33;;;;;;;32.7;20.25;;;;;;;2.87;92.92285;94082.92;;;;
2019/11/16 05:23:35;;;;;;;32.7;20.25;;;;;;;2.87;92.92285;94082.92;;;;
2019/11/16 05:24:36;;;;;;;32.7;20.25;;;;;;;2.87;92.92285;94082.92;;;;
2019/11/16 05:25:37;;;;;;;32.7;20.25;;;;;;;2.87;92.92285;94082.92;;;;
2019/11/16 05:26:38;;;;;;;33.84999;19.6;;;;;;;3.03;93.32324;94095.7;;;;
2019/11/16 05:27:39;;;;;;;33.84999;19.6;;;;;;;3.03;93.32324;94095.7;;;;
2019/11/16 05:28:40;;;;;;;33.84999;19.6;;;;;;;3.03;93.32324;94095.7;;;;
2019/11/16 05:29:42;;;;;;;33.84999;19.6;;;;;;;3.03;93.32324;94095.7;;;;
2019/11/16 05:30:43;;;;;;;33.84999;19.6;;;;;;;3.03;93.32324;94095.7;;;;
2019/11/16 05:31:44;;;;;;;33.84999;19.6;;;;;;;3.03;93.32324;94095.7;;;;
2019/11/16 05:32:45;;;;;;;33.84999;19.6;;;;;;;3.03;93.32324;94095.7;;;;
2019/11/16 05:33:46;;;;;;;33.84999;19.6;;;;;;;3.03;93.32324;94095.7;;;;
2019/11/16 05:34:47;;;;;;;33.84999;19.6;;;;;;;3.03;93.32324;94095.7;;;;
2019/11/16 05:35:48;;;;;;;33.84999;19.6;;;;;;;3.03;93.32324;94095.7;;;;
2019/11/16 05:36:50;;;;;;;27.55;18.2;;;;;;;3.2;93.70703;94122.12;;;;
2019/11/16 05:37:51;;;;;;;27.55;18.2;;;;;;;3.2;93.70703;94122.12;;;;
2019/11/16 05:38:52;;;;;;;27.55;18.2;;;;;;;3.2;93.70703;94122.12;;;;
2019/11/16 05:39:53;;;;;;;27.55;18.2;;;;;;;3.2;93.70703;94122.12;;;;
2019/11/16 05:40:54;;;;;;;27.55;18.2;;;;;;;3.2;93.70703;94122.12;;;;
2019/11/16 05:41:55;;;;;;;27.55;18.2;;;;;;;3.2;93.70703;94122.12;;;;
2019/11/16 05:42:56;;;;;;;27.55;18.2;;;;;;;3.2;93.70703;94122.12;;;;
2019/11/16 05:43:57;;;;;;;27.55;18.2;;;;;;;3.2;93.70703;94122.12;;;;
2019/11/16 05:44:58;;;;;;;27.55;18.2;;;;;;;3.2;93.70703;94122.12;;;;
2019/11/16 05:46:00;;;;;;;27.55;18.2;;;;;;;3.2;93.70703;94122.12;;;;
2019/11/16 05:47:01;;;;;;;27.55;18.2;;;;;;;3.2;93.70703;94122.12;;;;
2019/11/16 05:48:02;;;;;;;26.75;18.15;;;;;;;3.28;93.76563;94141.83;;;;
2019/11/16 05:49:03;;;;;;;26.75;18.15;;;;;;;3.28;93.76563;94141.83;;;;
2019/11/16 05:50:05;;;;;;;26.75;18.15;;;;;;;3.28;93.76563;94141.83;;;;
2019/11/16 05:51:06;;;;;;;26.75;18.15;;;;;;;3.28;93.76563;94141.83;;;;
2019/11/16 05:52:07;;;;;;;26.75;18.15;;;;;;;3.28;93.76563;94141.83;;;;
2019/11/16 05:53:08;;;;;;;26.75;18.15;;;;;;;3.28;93.76563;94141.83;;;;
2019/11/16 05:54:09;;;;;;;26.75;18.15;;;;;;;3.28;93.76563;94141.83;;;;
2019/11/16 05:55:10;;;;;;;26.75;18.15;;;;;;;3.28;93.76563;94141.83;;;;